Time;durP1;ratioP1;P1;durP2;ratioP2;P2;SDS_P1;SDS_P2;PMS_P1;PMS_P2;Temp;Humidity;BMP_temperature;BMP_pressure;BME280_temperature;BME280_humidity;BME280_pressure;Samples;Min_cycle;Max_cycle;Signal;HPM_P1;HPM_P2
2024/01/16 00:01:07;;;;;;;5.32;1.08;;;;;;;0.67;100.00;99630.25;5049229;28;20069;-83
2024/01/16 00:03:34;;;;;;;3.05;1.45;;;;;;;0.71;100.00;99632.00;5032736;28;20052;-82
2024/01/16 00:06:06;;;;;;;1.17;0.98;;;;;;;0.68;100.00;99637.13;5028763;28;20044;-81
2024/01/16 00:08:36;;;;;;;3.90;0.70;;;;;;;0.68;100.00;99642.28;5029871;28;20053;-82
2024/01/16 00:11:03;;;;;;;1.58;1.48;;;;;;;0.68;100.00;99639.72;5026460;28;20508;-82
2024/01/16 00:13:30;;;;;;;2.58;1.20;;;;;;;0.71;100.00;99647.47;5039323;28;20063;-81
2024/01/16 00:15:57;;;;;;;1.52;0.80;;;;;;;0.69;100.00;99640.56;5021707;28;20045;-81
2024/01/16 00:18:24;;;;;;;2.78;0.60;;;;;;;0.68;100.00;99651.69;5028677;28;20053;-82
2024/01/16 00:20:52;;;;;;;2.63;0.90;;;;;;;0.69;100.00;99651.72;5030284;28;20071;-80
2024/01/16 00:23:20;;;;;;;1.38;0.73;;;;;;;0.64;100.00;99659.41;5030036;28;20068;-80
2024/01/16 00:25:49;;;;;;;1.10;0.70;;;;;;;0.67;100.00;99661.16;5039811;28;20438;-80
2024/01/16 00:28:16;;;;;;;3.92;0.75;;;;;;;0.63;100.00;99662.81;5039612;28;20512;-84
2024/01/16 00:30:42;;;;;;;2.25;0.68;;;;;;;0.66;100.00;99661.97;5056313;28;20526;-81
2024/01/16 00:33:10;;;;;;;1.50;1.00;;;;;;;0.69;100.00;99666.31;5041141;28;20151;-82
2024/01/16 00:35:36;;;;;;;3.35;0.80;;;;;;;0.69;100.00;99667.16;5042745;28;20048;-82
2024/01/16 00:38:03;;;;;;;1.23;0.47;;;;;;;0.69;100.00;99671.47;5059237;28;20044;-81
2024/01/16 00:40:30;;;;;;;1.25;0.35;;;;;;;0.62;100.00;99671.38;5033354;28;20136;-83
2024/01/16 00:42:56;;;;;;;1.08;0.65;;;;;;;0.65;100.00;99667.97;5045997;28;20045;-81
2024/01/16 00:45:23;;;;;;;0.93;0.47;;;;;;;0.65;100.00;99681.72;5027573;28;20091;-82
2024/01/16 00:47:50;;;;;;;3.63;0.52;;;;;;;0.68;100.00;99677.47;5042087;28;21290;-82
2024/01/16 00:50:17;;;;;;;0.43;0.40;;;;;;;0.67;100.00;99686.91;5064033;28;20041;-82
2024/01/16 00:52:44;;;;;;;1.70;0.38;;;;;;;0.70;100.00;99686.09;5047366;28;20568;-81
2024/01/16 00:55:11;;;;;;;0.30;0.30;;;;;;;0.67;100.00;99698.94;5033686;28;20037;-81
2024/01/16 00:57:37;;;;;;;2.13;0.40;;;;;;;0.63;100.00;99698.00;5041253;28;20556;-80
2024/01/16 01:00:09;;;;;;;2.20;0.35;;;;;;;0.66;100.00;99700.63;5039155;28;20419;-80
2024/01/16 01:02:36;;;;;;;2.30;1.27;;;;;;;0.68;100.00;99704.09;5046634;28;20045;-82
2024/01/16 01:05:03;;;;;;;2.55;1.85;;;;;;;0.63;100.00;99705.72;5024188;28;20489;-81
2024/01/16 01:07:29;;;;;;;2.05;0.70;;;;;;;0.61;100.00;99710.88;5030072;28;20149;-80
2024/01/16 01:09:56;;;;;;;1.88;0.63;;;;;;;0.65;100.00;99715.22;5045700;28;20054;-80
2024/01/16 01:12:24;;;;;;;1.75;0.90;;;;;;;0.62;100.00;99722.03;5046684;28;20055;-80
2024/01/16 01:14:51;;;;;;;3.50;1.60;;;;;;;0.64;100.00;99725.50;5040902;28;20037;-79
2024/01/16 01:17:18;;;;;;;2.63;1.23;;;;;;;0.56;100.00;99725.38;5038693;28;20056;-83
2024/01/16 01:19:46;;;;;;;1.58;1.00;;;;;;;0.62;100.00;99729.75;5027901;28;20037;-79
2024/01/16 01:22:13;;;;;;;4.68;1.70;;;;;;;0.57;100.00;99734.81;5044032;28;20075;-81
2024/01/16 01:24:39;;;;;;;4.43;2.88;;;;;;;0.62;100.00;99743.47;5043453;28;20160;-82
2024/01/16 01:27:06;;;;;;;1.17;0.80;;;;;;;0.67;100.00;99748.72;5040660;28;20127;-82
2024/01/16 01:29:33;;;;;;;2.33;0.73;;;;;;;0.72;100.00;99749.66;5027433;28;20037;-81
2024/01/16 01:32:00;;;;;;;2.72;0.88;;;;;;;0.59;100.00;99748.59;5025424;28;20070;-82
2024/01/16 01:34:26;;;;;;;4.18;1.30;;;;;;;0.57;100.00;99745.13;5043150;28;20049;-80
2024/01/16 01:36:57;;;;;;;1.00;1.00;;;;;;;0.50;100.00;99745.88;5047353;28;20087;-79
2024/01/16 01:39:32;;;;;;;2.83;1.23;;;;;;;0.49;100.00;99750.13;5030449;28;20041;-82
2024/01/16 01:42:01;;;;;;;6.70;3.08;;;;;;;0.43;100.00;99747.47;5047079;28;20096;-80
2024/01/16 01:44:27;;;;;;;1.80;1.00;;;;;;;0.32;100.00;99760.13;5030122;28;20126;-80
2024/01/16 01:46:57;;;;;;;3.00;1.75;;;;;;;0.24;100.00;99758.28;5025255;28;20044;-80
2024/01/16 01:49:26;;;;;;;3.30;0.75;;;;;;;0.23;100.00;99761.69;5034839;28;20053;-83
2024/01/16 01:51:53;;;;;;;1.17;0.70;;;;;;;0.24;100.00;99764.28;5025471;28;20508;-81
2024/01/16 01:54:20;;;;;;;3.10;0.77;;;;;;;0.30;100.00;99755.78;5043548;28;20041;-81
2024/01/16 01:56:49;;;;;;;3.40;0.90;;;;;;;0.35;100.00;99767.03;5055645;28;20079;-82
2024/01/16 01:59:19;;;;;;;3.40;0.80;;;;;;;0.42;100.00;99768.03;5040725;28;20053;-80
2024/01/16 02:01:47;;;;;;;3.78;0.85;;;;;;;0.45;100.00;99768.94;5042833;28;20041;-81
2024/01/16 02:04:15;;;;;;;2.47;0.80;;;;;;;0.44;100.00;99772.38;5028021;28;20041;-80
2024/01/16 02:06:44;;;;;;;1.80;0.60;;;;;;;0.43;100.00;99772.34;5019843;28;20061;-80
2024/01/16 02:09:13;;;;;;;4.22;1.30;;;;;;;0.38;100.00;99776.53;5047794;28;20037;-82
2024/01/16 02:11:43;;;;;;;3.47;0.80;;;;;;;0.40;100.00;99773.16;5023841;28;20286;-80
2024/01/16 02:14:10;;;;;;;3.88;0.80;;;;;;;0.44;100.00;99779.22;5029693;28;20059;-81
2024/01/16 02:16:44;;;;;;;1.30;1.20;;;;;;;0.43;100.00;99786.09;5041118;28;20496;-81
2024/01/16 02:19:11;;;;;;;3.90;0.70;;;;;;;0.45;100.00;99788.69;5025971;28;20052;-82
2024/01/16 02:21:48;;;;;;;1.77;0.80;;;;;;;0.48;100.00;99788.72;5027795;28;20064;-81
2024/01/16 02:24:17;;;;;;;5.40;0.70;;;;;;;0.44;100.00;99784.38;5034671;28;20077;-80
2024/01/16 02:26:44;;;;;;;4.43;1.40;;;;;;;0.36;100.00;99786.81;5043252;28;20071;-82
2024/01/16 02:29:11;;;;;;;2.33;0.73;;;;;;;0.40;100.00;99785.16;5054114;28;20099;-81
2024/01/16 02:31:39;;;;;;;3.67;0.90;;;;;;;0.27;100.00;99797.78;5045034;28;20060;-79
2024/01/16 02:34:06;;;;;;;5.45;1.05;;;;;;;0.18;100.00;99796.75;5039575;28;20096;-80
2024/01/16 02:36:33;;;;;;;3.50;0.90;;;;;;;0.14;100.00;99800.97;5060735;28;20033;-81
2024/01/16 02:39:00;;;;;;;2.35;0.95;;;;;;;0.15;100.00;99806.16;5023724;28;20056;-80
2024/01/16 02:41:27;;;;;;;3.45;0.82;;;;;;;0.17;100.00;99811.34;5031179;28;20049;-83
2024/01/16 02:43:53;;;;;;;2.20;0.88;;;;;;;0.11;100.00;99801.78;5027493;28;20134;-80
2024/01/16 02:46:20;;;;;;;2.40;0.80;;;;;;;0.15;100.00;99807.88;5038159;28;20440;-81
2024/01/16 02:48:46;;;;;;;4.32;1.13;;;;;;;0.05;100.00;99811.94;5045194;28;20064;-81
2024/01/16 02:51:13;;;;;;;2.63;0.70;;;;;;;0.07;100.00;99814.56;5060557;28;20408;-81
2024/01/16 02:53:40;;;;;;;2.40;0.70;;;;;;;0.01;100.00;99817.88;5043047;28;20134;-81
2024/01/16 02:56:06;;;;;;;2.40;0.80;;;;;;;0.02;100.00;99822.19;5022904;28;20047;-81
2024/01/16 02:58:33;;;;;;;4.70;1.83;;;;;;;-0.02;100.00;99828.13;5022232;28;20049;-81
2024/01/16 03:01:02;;;;;;;2.22;0.77;;;;;;;-0.04;100.00;99824.63;5038713;28;20059;-80
2024/01/16 03:03:33;;;;;;;3.60;0.65;;;;;;;0.05;100.00;99829.97;5039089;28;20048;-81
2024/01/16 03:05:59;;;;;;;6.75;1.10;;;;;;;0.01;100.00;99822.16;5028260;28;20692;-80
2024/01/16 03:08:27;;;;;;;4.78;0.95;;;;;;;0.00;100.00;99816.16;5041250;28;20068;-84
2024/01/16 03:10:53;;;;;;;3.90;1.30;;;;;;;-0.01;100.00;99830.72;5039142;28;20110;-81
2024/01/16 03:13:23;;;;;;;6.50;1.35;;;;;;;-0.08;100.00;99825.41;5030314;28;20062;-80
2024/01/16 03:15:52;;;;;;;2.38;1.08;;;;;;;-0.09;100.00;99839.09;5071291;28;20041;-80
2024/01/16 03:18:22;;;;;;;2.40;1.00;;;;;;;-0.08;100.00;99834.00;5031554;28;20775;-80
2024/01/16 03:20:48;;;;;;;4.88;1.23;;;;;;;-0.09;100.00;99832.28;5051586;28;20135;-81
2024/01/16 03:23:15;;;;;;;2.80;1.33;;;;;;;-0.22;100.00;99835.41;5033388;28;20051;-80
2024/01/16 03:25:42;;;;;;;8.43;1.60;;;;;;;-0.31;100.00;99838.66;5048158;28;20417;-81
2024/01/16 03:28:10;;;;;;;2.03;0.88;;;;;;;-0.37;100.00;99839.38;5046897;28;20072;-80
2024/01/16 03:30:37;;;;;;;4.15;1.17;;;;;;;-0.42;100.00;99833.25;5068182;28;20148;-83
2024/01/16 03:33:06;;;;;;;9.82;2.70;;;;;;;-0.48;100.00;99846.00;5047814;28;20041;-81
2024/01/16 03:35:33;;;;;;;6.82;1.60;;;;;;;-0.55;100.00;99841.53;5033389;28;20045;-81
2024/01/16 03:37:59;;;;;;;4.70;2.20;;;;;;;-0.60;100.00;99838.00;5033214;28;20049;-82
2024/01/16 03:40:25;;;;;;;5.35;1.67;;;;;;;-0.60;100.00;99850.84;5029257;28;20041;-81
2024/01/16 03:42:52;;;;;;;4.43;1.33;;;;;;;-0.63;100.00;99856.78;5048723;28;20777;-81
2024/01/16 03:45:18;;;;;;;3.13;1.60;;;;;;;-0.65;100.00;99858.47;5037365;28;20041;-81
2024/01/16 03:47:45;;;;;;;4.15;1.70;;;;;;;-0.57;100.00;99848.38;5047628;28;20384;-82
2024/01/16 03:50:12;;;;;;;9.43;1.63;;;;;;;-0.54;100.00;99858.72;5034753;28;20203;-81
2024/01/16 03:52:38;;;;;;;7.35;1.63;;;;;;;-0.54;100.00;99859.56;5050230;28;20508;-80
2024/01/16 03:55:05;;;;;;;7.85;1.60;;;;;;;-0.61;100.00;99865.41;5028189;28;20099;-80
2024/01/16 03:57:32;;;;;;;4.68;1.48;;;;;;;-0.62;100.00;99865.38;5041393;28;20135;-81
2024/01/16 04:00:02;;;;;;;5.90;1.23;;;;;;;-0.63;100.00;99871.34;5050648;28;20040;-81
2024/01/16 04:02:28;;;;;;;7.32;1.23;;;;;;;-0.67;100.00;99884.09;5036281;28;20055;-85
2024/01/16 04:04:55;;;;;;;3.72;1.45;;;;;;;-0.60;100.00;99884.25;5034166;28;20053;-85
2024/01/16 04:07:26;;;;;;;13.35;2.33;;;;;;;-0.56;100.00;99880.91;5058979;28;20049;-81
2024/01/16 04:09:52;;;;;;;6.75;1.95;;;;;;;-0.57;100.00;99886.91;5031285;28;20144;-82
2024/01/16 04:12:19;;;;;;;6.68;1.40;;;;;;;-0.56;100.00;99888.63;5067448;28;20041;-82
2024/01/16 04:14:47;;;;;;;4.80;1.85;;;;;;;-0.47;100.00;99888.88;5030374;28;20095;-83
2024/01/16 04:17:14;;;;;;;7.50;1.45;;;;;;;-0.51;100.00;99889.63;5033165;28;20063;-82
2024/01/16 04:19:40;;;;;;;5.03;1.17;;;;;;;-0.58;100.00;99891.19;5050089;28;20144;-81
2024/01/16 04:22:07;;;;;;;2.65;1.40;;;;;;;-0.61;100.00;99895.38;5057284;28;20045;-81
2024/01/16 04:24:36;;;;;;;5.38;1.80;;;;;;;-0.53;100.00;99892.16;5063834;28;20440;-81
2024/01/16 04:27:04;;;;;;;4.70;1.48;;;;;;;-0.49;100.00;99890.53;5031336;28;20037;-81
2024/01/16 04:29:30;;;;;;;4.82;1.55;;;;;;;-0.47;100.00;99890.56;5031869;28;20048;-83
2024/01/16 04:31:58;;;;;;;3.97;1.55;;;;;;;-0.49;100.00;99893.09;5041741;28;20049;-80
2024/01/16 04:34:24;;;;;;;7.07;1.40;;;;;;;-0.52;100.00;99887.91;5044955;28;20152;-81
2024/01/16 04:36:51;;;;;;;4.93;1.92;;;;;;;-0.51;100.00;99892.19;5045464;28;20067;-81
2024/01/16 04:39:17;;;;;;;5.22;1.42;;;;;;;-0.47;100.00;99893.13;5045281;28;20136;-80
2024/01/16 04:41:44;;;;;;;5.72;1.20;;;;;;;-0.44;100.00;99891.50;5039272;28;20072;-81
2024/01/16 04:44:10;;;;;;;4.35;1.33;;;;;;;-0.39;100.00;99892.50;5059778;28;20052;-80
2024/01/16 04:46:39;;;;;;;11.13;1.55;;;;;;;-0.44;100.00;99890.63;5029903;28;20142;-80
2024/01/16 04:49:06;;;;;;;10.23;2.92;;;;;;;-0.48;100.00;99888.81;5028488;28;20048;-80
2024/01/16 04:51:33;;;;;;;2.08;1.02;;;;;;;-0.48;100.00;99884.56;5051702;28;20412;-81
2024/01/16 04:53:59;;;;;;;12.57;3.10;;;;;;;-0.50;100.00;99881.06;5033247;28;20049;-82
2024/01/16 04:56:26;;;;;;;3.70;1.17;;;;;;;-0.44;100.00;99885.47;5034357;28;20656;-81
2024/01/16 04:58:53;;;;;;;9.23;1.05;;;;;;;-0.44;100.00;99882.91;5026123;28;20041;-81
2024/01/16 05:01:19;;;;;;;6.53;1.50;;;;;;;-0.36;100.00;99894.25;5063761;28;20527;-82
2024/01/16 05:03:46;;;;;;;1.13;1.02;;;;;;;-0.41;100.00;99891.56;5039730;28;20056;-82
2024/01/16 05:06:16;;;;;;;9.07;2.05;;;;;;;-0.42;100.00;99894.13;5029774;28;20417;-82
2024/01/16 05:08:43;;;;;;;4.50;1.17;;;;;;;-0.45;100.00;99888.91;5029231;28;20095;-83
2024/01/16 05:11:13;;;;;;;6.60;2.75;;;;;;;-0.46;100.00;99892.31;5038131;28;20049;-83
2024/01/16 05:13:40;;;;;;;9.40;1.48;;;;;;;-0.47;100.00;99893.13;5060786;28;20095;-83
2024/01/16 05:16:07;;;;;;;13.80;2.30;;;;;;;-0.48;100.00;99878.53;5030068;28;20183;-83
2024/01/16 05:18:34;;;;;;;9.73;1.33;;;;;;;-0.50;100.00;99893.94;5044043;28;20073;-80
2024/01/16 05:21:02;;;;;;;3.60;1.77;;;;;;;-0.51;100.00;99895.66;5028386;28;20094;-81
2024/01/16 05:23:28;;;;;;;11.95;2.15;;;;;;;-0.53;100.00;99896.44;5045860;28;20045;-83
2024/01/16 05:25:58;;;;;;;6.47;1.30;;;;;;;-0.60;100.00;99895.44;5047329;28;20045;-82
2024/01/16 05:28:25;;;;;;;7.40;2.38;;;;;;;-0.65;100.00;99906.41;5027574;28;20102;-82
2024/01/16 05:30:51;;;;;;;6.72;1.13;;;;;;;-0.73;100.00;99891.69;5045090;28;20053;-81
2024/01/16 05:33:18;;;;;;;2.03;1.33;;;;;;;-0.74;100.00;99884.81;5043559;28;20041;-82
2024/01/16 05:35:44;;;;;;;4.88;1.65;;;;;;;-0.74;100.00;99897.66;5027314;28;20099;-82
2024/01/16 05:38:12;;;;;;;4.88;1.63;;;;;;;-0.78;100.00;99895.84;5048558;28;20889;-82
2024/01/16 05:40:39;;;;;;;6.40;1.98;;;;;;;-0.80;100.00;99902.63;5030976;28;20048;-82
2024/01/16 05:43:05;;;;;;;7.55;2.00;;;;;;;-0.82;100.00;99901.75;5031897;28;20040;-83
2024/01/16 05:45:32;;;;;;;9.00;2.85;;;;;;;-0.81;100.00;99902.59;5032350;28;20045;-85
2024/01/16 05:47:58;;;;;;;9.25;2.30;;;;;;;-0.79;100.00;99906.09;5024709;28;20181;-81
2024/01/16 05:50:25;;;;;;;10.30;2.53;;;;;;;-0.78;100.00;99898.41;5035990;28;20060;-81
2024/01/16 05:52:52;;;;;;;8.90;2.67;;;;;;;-0.78;100.00;99906.13;5013641;28;20314;-82
2024/01/16 05:55:21;;;;;;;5.80;1.65;;;;;;;-0.81;100.00;99902.59;5012003;28;20045;-82
2024/01/16 05:57:47;;;;;;;7.28;2.15;;;;;;;-0.79;100.00;99908.66;5030233;28;20048;-83
2024/01/16 06:00:15;;;;;;;4.75;1.90;;;;;;;-0.74;100.00;99909.66;5032057;28;20063;-81
2024/01/16 06:02:42;;;;;;;3.88;2.05;;;;;;;-0.66;100.00;99915.84;5011819;28;20136;-83
2024/01/16 06:05:09;;;;;;;2.08;1.58;;;;;;;-0.65;100.00;99917.59;5029568;28;20570;-83
2024/01/16 06:07:36;;;;;;;3.95;1.90;;;;;;;-0.68;100.00;99913.25;5014797;28;20741;-81
2024/01/16 06:10:04;;;;;;;6.63;2.30;;;;;;;-0.67;100.00;99912.38;5014882;28;20048;-83
2024/01/16 06:12:30;;;;;;;10.02;2.60;;;;;;;-0.70;100.00;99909.75;5009326;28;20071;-84
2024/01/16 06:14:57;;;;;;;4.50;2.10;;;;;;;-0.65;100.00;99912.44;5031921;28;20045;-83
2024/01/16 06:17:24;;;;;;;7.32;3.47;;;;;;;-0.65;100.00;99909.88;5000574;28;20499;-83
2024/01/16 06:19:51;;;;;;;3.85;2.25;;;;;;;-0.63;100.00;99910.75;5045708;28;20136;-82
2024/01/16 06:22:17;;;;;;;6.00;2.10;;;;;;;-0.59;100.00;99898.84;5030791;28;20071;-83
2024/01/16 06:24:44;;;;;;;7.40;2.28;;;;;;;-0.55;100.00;99898.97;5046380;28;20049;-83
2024/01/16 06:27:18;;;;;;;6.65;1.98;;;;;;;-0.51;100.00;99897.31;5045405;28;20755;-83
2024/01/16 06:29:46;;;;;;;5.90;2.10;;;;;;;-0.49;100.00;99897.38;5010720;28;20476;-83
2024/01/16 06:32:15;;;;;;;2.55;1.85;;;;;;;-0.47;100.00;99904.31;5014614;28;20119;-83
2024/01/16 06:34:42;;;;;;;4.25;2.92;;;;;;;-0.39;100.00;99900.19;5020450;28;20061;-83
2024/01/16 06:37:09;;;;;;;3.30;1.83;;;;;;;-0.33;100.00;99904.59;5023367;28;20053;-82
2024/01/16 06:39:37;;;;;;;6.85;2.38;;;;;;;-0.28;100.00;99905.59;5007533;28;20425;-83
2024/01/16 06:42:05;;;;;;;7.28;2.50;;;;;;;-0.29;100.00;99900.41;5020986;28;20135;-82
2024/01/16 06:44:31;;;;;;;5.20;2.92;;;;;;;-0.25;100.00;99904.78;5045840;28;20435;-81
2024/01/16 06:46:58;;;;;;;10.30;3.30;;;;;;;-0.20;100.00;99906.63;5043067;28;20048;-81
2024/01/16 06:49:25;;;;;;;7.28;1.55;;;;;;;-0.23;100.00;99900.56;5043778;28;20049;-81
2024/01/16 06:51:51;;;;;;;9.52;2.90;;;;;;;-0.19;100.00;99904.94;5011868;28;20052;-80
2024/01/16 06:54:23;;;;;;;5.97;4.30;;;;;;;-0.13;100.00;99911.91;5026342;28;20075;-82
2024/01/16 06:56:52;;;;;;;5.75;2.53;;;;;;;-0.11;100.00;99911.09;5031309;28;20455;-83
2024/01/16 06:59:21;;;;;;;6.28;2.53;;;;;;;-0.15;100.00;99914.44;5028347;28;20131;-83
2024/01/16 07:01:48;;;;;;;4.47;2.03;;;;;;;-0.24;100.00;99909.97;5011705;28;20132;-82
2024/01/16 07:04:17;;;;;;;8.48;2.85;;;;;;;-0.29;100.00;99897.84;5027687;28;20061;-82
2024/01/16 07:06:44;;;;;;;6.18;2.88;;;;;;;-0.30;100.00;99912.41;5015385;28;20111;-84
2024/01/16 07:09:11;;;;;;;8.60;3.08;;;;;;;-0.30;100.00;99908.94;5013268;28;20045;-85
2024/01/16 07:11:42;;;;;;;4.25;3.13;;;;;;;-0.30;100.00;99907.28;5027920;28;20042;-83
2024/01/16 07:14:11;;;;;;;7.40;2.60;;;;;;;-0.26;100.00;99933.91;5031203;28;20139;-83
2024/01/16 07:16:38;;;;;;;6.93;3.15;;;;;;;-0.28;100.00;99921.00;5032996;28;20041;-84
2024/01/16 07:19:05;;;;;;;7.68;2.58;;;;;;;-0.30;100.00;99927.84;5030622;28;20047;-83
2024/01/16 07:21:33;;;;;;;4.30;2.78;;;;;;;-0.29;100.00;99931.28;5033631;28;20048;-83
2024/01/16 07:24:00;;;;;;;5.57;3.50;;;;;;;-0.33;100.00;99927.75;5024167;28;20044;-83
2024/01/16 07:26:26;;;;;;;2.83;2.17;;;;;;;-0.32;100.00;99934.66;5029308;28;20037;-85
2024/01/16 07:28:55;;;;;;;18.92;3.30;;;;;;;-0.30;100.00;99937.25;5009324;28;20033;-83
2024/01/16 07:31:22;;;;;;;11.13;3.20;;;;;;;-0.32;100.00;99933.78;5049445;28;20396;-84
2024/01/16 07:33:49;;;;;;;5.53;2.83;;;;;;;-0.34;100.00;99937.19;5036559;28;20184;-85
2024/01/16 07:36:15;;;;;;;3.83;2.55;;;;;;;-0.34;100.00;99931.16;5021292;28;20511;-83
2024/01/16 07:38:42;;;;;;;8.88;2.70;;;;;;;-0.32;100.00;99939.78;5033941;28;20503;-84
2024/01/16 07:41:11;;;;;;;8.90;3.30;;;;;;;-0.29;100.00;99936.41;5035084;28;20060;-82
2024/01/16 07:43:37;;;;;;;6.53;2.75;;;;;;;-0.35;100.00;99929.44;5045013;28;20139;-84
2024/01/16 07:46:04;;;;;;;12.93;3.58;;;;;;;-0.32;100.00;99931.22;5033631;28;20053;-80
2024/01/16 07:48:31;;;;;;;5.65;3.08;;;;;;;-0.24;100.00;99938.25;5027623;28;20049;-82
2024/01/16 07:50:57;;;;;;;6.88;3.25;;;;;;;-0.27;100.00;99934.75;5028374;28;20049;-84
2024/01/16 07:53:27;;;;;;;8.38;3.33;;;;;;;-0.29;100.00;99937.28;5027224;28;20049;-83
2024/01/16 07:55:55;;;;;;;4.68;3.67;;;;;;;-0.31;100.00;99935.50;5022122;28;20132;-83
2024/01/16 07:58:22;;;;;;;12.02;3.05;;;;;;;-0.30;100.00;99935.56;5028282;28;20033;-82
2024/01/16 08:00:49;;;;;;;7.00;3.53;;;;;;;-0.25;100.00;99943.38;5030105;28;20044;-82
2024/01/16 08:03:15;;;;;;;5.05;3.63;;;;;;;-0.27;100.00;99945.91;5023431;28;20049;-83
2024/01/16 08:05:42;;;;;;;15.88;3.95;;;;;;;-0.24;100.00;99943.41;5019732;28;20403;-82
2024/01/16 08:08:14;;;;;;;8.93;3.35;;;;;;;-0.24;100.00;99939.97;5025365;28;20116;-82
2024/01/16 08:10:44;;;;;;;7.35;3.50;;;;;;;-0.23;100.00;99939.16;5047469;28;20099;-84
2024/01/16 08:13:11;;;;;;;7.57;3.13;;;;;;;-0.21;100.00;99940.03;5031768;28;20053;-83
2024/01/16 08:15:40;;;;;;;6.85;3.38;;;;;;;-0.18;100.00;99945.25;5025951;28;20045;-83
2024/01/16 08:18:07;;;;;;;5.20;4.05;;;;;;;-0.17;100.00;99939.25;5016642;28;20567;-83
2024/01/16 08:20:33;;;;;;;4.68;2.72;;;;;;;-0.15;100.00;99939.31;5033768;28;20045;-82
2024/01/16 08:23:00;;;;;;;10.38;3.08;;;;;;;-0.09;100.00;99942.00;5024711;28;20093;-83
2024/01/16 08:25:27;;;;;;;5.75;3.47;;;;;;;-0.07;100.00;99951.50;5034377;28;20179;-84
2024/01/16 08:27:56;;;;;;;12.57;3.90;;;;;;;-0.02;100.00;99949.91;5037984;28;20486;-84
2024/01/16 08:30:22;;;;;;;11.32;3.90;;;;;;;-0.01;100.00;99953.38;5031152;28;20563;-82
2024/01/16 08:32:49;;;;;;;9.15;3.78;;;;;;;0.03;100.00;99947.44;5029593;28;20102;-83
2024/01/16 08:35:21;;;;;;;10.43;4.00;;;;;;;0.03;100.00;99954.28;5034428;28;20176;-83
2024/01/16 08:37:49;;;;;;;9.65;3.38;;;;;;;-0.01;100.00;99948.22;5028819;28;20055;-86
2024/01/16 08:40:18;;;;;;;8.85;4.78;;;;;;;0.03;100.00;99952.59;5019934;28;20462;-86
2024/01/16 08:42:45;;;;;;;8.40;3.53;;;;;;;0.04;100.00;99956.91;5030392;28;20102;-87
2024/01/16 08:45:12;;;;;;;7.93;3.55;;;;;;;0.15;100.00;99958.00;5025437;28;20516;-88
2024/01/16 08:47:45;;;;;;;9.02;3.88;;;;;;;0.18;100.00;99951.19;5032661;28;20096;-87
2024/01/16 08:50:15;;;;;;;6.72;3.67;;;;;;;0.23;100.00;99955.59;5035551;28;20092;-88
2024/01/16 08:52:42;;;;;;;12.43;4.63;;;;;;;0.31;100.00;99955.75;5034794;28;20077;-86
2024/01/16 08:55:12;;;;;;;8.30;4.32;;;;;;;0.26;100.00;99955.69;5032938;28;20055;-88
2024/01/16 08:57:51;;;;;;;7.57;4.00;;;;;;;0.37;100.00;99952.47;5033542;28;20132;-85
2024/01/16 09:00:20;;;;;;;10.45;4.18;;;;;;;0.28;100.00;99947.97;5039103;28;20041;-87
2024/01/16 09:02:51;;;;;;;11.93;3.92;;;;;;;0.24;100.00;99947.03;5053994;28;20071;-86
2024/01/16 09:05:25;;;;;;;13.75;5.35;;;;;;;0.23;100.00;99950.44;5049179;28;20045;-87
2024/01/16 09:07:55;;;;;;;13.05;4.70;;;;;;;0.23;100.00;99949.59;5067670;28;20098;-88
2024/01/16 09:10:22;;;;;;;10.93;4.10;;;;;;;0.19;100.00;99946.06;5032312;28;20065;-85
2024/01/16 09:12:49;;;;;;;10.52;4.10;;;;;;;0.24;100.00;99946.19;5028818;28;20077;-85
2024/01/16 09:15:16;;;;;;;8.15;4.55;;;;;;;0.22;100.00;99946.16;5063075;28;21040;-87
2024/01/16 09:17:44;;;;;;;16.40;4.63;;;;;;;0.35;100.00;99949.84;5070616;28;20036;-88
2024/01/16 09:20:12;;;;;;;14.13;4.70;;;;;;;0.43;100.00;99953.47;5039878;28;20041;-88
2024/01/16 09:22:40;;;;;;;7.70;3.90;;;;;;;0.44;100.00;99949.16;5049831;28;20057;-86
2024/01/16 09:25:17;;;;;;;10.93;4.05;;;;;;;0.48;100.00;99949.28;5043967;28;20038;-88
2024/01/16 09:27:44;;;;;;;6.15;3.95;;;;;;;0.56;100.00;99948.53;5052183;28;20561;-86
2024/01/16 09:30:14;;;;;;;14.25;4.55;;;;;;;0.56;100.00;99951.13;5038231;28;20044;-86
2024/01/16 09:32:45;;;;;;;13.57;4.05;;;;;;;0.56;100.00;99957.16;5039983;28;20052;-85
2024/01/16 09:35:12;;;;;;;7.22;3.95;;;;;;;0.58;100.00;99952.03;5055716;28;20049;-86
2024/01/16 09:37:39;;;;;;;14.55;4.57;;;;;;;0.61;100.00;99950.41;5037082;28;20065;-88
2024/01/16 09:40:09;;;;;;;6.53;3.90;;;;;;;0.61;100.00;99949.50;5053315;28;20056;-87
2024/01/16 09:42:38;;;;;;;7.60;3.22;;;;;;;0.53;100.00;99944.19;5029683;28;20049;-87
2024/01/16 09:45:05;;;;;;;10.60;5.03;;;;;;;0.61;100.00;99952.97;5034116;28;20053;-88
2024/01/16 09:47:33;;;;;;;8.27;4.03;;;;;;;0.62;100.00;99941.81;5064739;28;20045;-87
2024/01/16 09:50:04;;;;;;;6.03;3.35;;;;;;;0.75;100.00;99953.22;5051222;28;20045;-87
2024/01/16 09:52:30;;;;;;;8.95;2.97;;;;;;;0.77;100.00;99950.66;5039426;28;20116;-87
2024/01/16 09:54:57;;;;;;;5.65;2.83;;;;;;;0.85;100.00;99948.25;5045344;28;20557;-84
2024/01/16 09:57:27;;;;;;;11.00;3.75;;;;;;;0.87;100.00;99950.00;5050726;28;20052;-88
2024/01/16 09:59:54;;;;;;;11.10;3.67;;;;;;;0.91;100.00;99951.84;5036584;28;20055;-87
2024/01/16 10:02:21;;;;;;;4.97;2.92;;;;;;;1.00;100.00;99943.38;5053269;28;20099;-87
2024/01/16 10:04:53;;;;;;;8.35;3.53;;;;;;;1.10;100.00;99960.75;5046915;28;20046;-88
2024/01/16 10:07:27;;;;;;;6.88;2.92;;;;;;;1.15;100.00;99955.69;5053460;28;20044;-88
2024/01/16 10:09:58;;;;;;;8.55;3.08;;;;;;;1.41;100.00;99951.00;5059769;28;20567;-86
2024/01/16 10:12:28;;;;;;;6.63;3.35;;;;;;;1.42;100.00;99954.44;5058222;28;20479;-88
2024/01/16 10:15:00;;;;;;;10.85;3.95;;;;;;;1.47;100.00;99956.25;5047258;28;20064;-86
2024/01/16 10:17:49;;;;;;;8.45;4.07;;;;;;;1.70;100.00;99960.06;5074659;28;20080;-87
2024/01/16 10:20:36;;;;;;;5.05;3.28;;;;;;;1.71;100.00;99948.88;5044615;28;20103;-87
2024/01/16 10:23:09;;;;;;;3.97;3.35;;;;;;;1.64;100.00;99953.97;5067131;28;20044;-87
2024/01/16 10:25:39;;;;;;;8.38;2.78;;;;;;;1.84;100.00;99958.56;5078060;28;20053;-88
2024/01/16 10:28:11;;;;;;;7.72;3.35;;;;;;;1.99;100.00;99957.91;5039987;28;20044;-86
2024/01/16 10:30:46;;;;;;;6.45;2.33;;;;;;;1.84;100.00;99958.56;5061599;28;20044;-85
2024/01/16 10:33:16;;;;;;;7.38;3.08;;;;;;;1.80;100.00;99957.63;5063828;28;20097;-84
2024/01/16 10:35:47;;;;;;;6.10;2.60;;;;;;;1.60;100.00;99956.44;5032519;28;20064;-86
2024/01/16 10:38:25;;;;;;;10.68;3.63;;;;;;;1.46;100.00;99948.47;5042838;28;20041;-85
2024/01/16 10:41:10;;;;;;;6.38;3.28;;;;;;;1.71;100.00;99959.19;5041238;28;20058;-87
2024/01/16 10:43:39;;;;;;;7.07;3.97;;;;;;;1.83;100.00;99959.41;5046103;28;20048;-85
2024/01/16 10:46:14;;;;;;;5.75;2.75;;;;;;;1.74;100.00;99960.13;5043200;28;20074;-87
2024/01/16 10:49:06;;;;;;;8.23;2.80;;;;;;;1.77;100.00;99970.50;5032551;28;20045;-88
2024/01/16 10:51:39;;;;;;;7.40;3.15;;;;;;;1.79;100.00;99970.53;5078909;28;20084;-87
2024/01/16 10:54:10;;;;;;;6.10;2.65;;;;;;;1.90;100.00;99968.09;5052890;28;20045;-87
2024/01/16 10:56:48;;;;;;;15.90;3.70;;;;;;;1.76;100.00;99967.88;5061899;28;20109;-85
2024/01/16 10:59:37;;;;;;;9.82;3.70;;;;;;;1.82;100.00;99967.97;5035283;28;20116;-87
2024/01/16 11:02:16;;;;;;;7.40;2.60;;;;;;;1.92;100.00;99972.44;5054842;28;20134;-87
2024/01/16 11:04:47;;;;;;;11.35;3.78;;;;;;;1.82;100.00;99965.41;5046571;28;20056;-87
2024/01/16 11:07:22;;;;;;;4.80;3.60;;;;;;;1.89;100.00;99971.53;5066275;28;20115;-85
2024/01/16 11:09:53;;;;;;;4.82;2.70;;;;;;;1.96;100.00;99974.22;5063450;28;20036;-85
2024/01/16 11:12:27;;;;;;;4.47;2.90;;;;;;;2.07;100.00;99976.94;5097298;23;20024;-85
2024/01/16 11:15:08;;;;;;;7.82;3.70;;;;;;;1.95;100.00;99971.63;5039460;28;20120;-85
2024/01/16 11:17:39;;;;;;;6.43;3.10;;;;;;;2.01;100.00;99970.84;5042799;28;20053;-86
2024/01/16 11:20:15;;;;;;;7.40;3.13;;;;;;;1.96;100.00;99973.38;5022254;28;20049;-88
2024/01/16 11:22:45;;;;;;;8.02;2.60;;;;;;;1.85;100.00;99983.50;5033535;28;20473;-85
2024/01/16 11:25:19;;;;;;;8.75;2.95;;;;;;;1.79;100.00;99971.38;5021862;28;20071;-86
2024/01/16 11:27:50;;;;;;;5.30;3.08;;;;;;;1.83;100.00;99977.47;5022293;28;20056;-85
2024/01/16 11:30:33;;;;;;;6.78;2.80;;;;;;;1.81;100.00;99980.03;5022479;28;20044;-88
2024/01/16 11:33:00;;;;;;;3.42;2.47;;;;;;;1.80;100.00;99961.94;5015052;28;20488;-86
2024/01/16 11:35:39;;;;;;;5.93;2.55;;;;;;;1.73;100.00;99973.00;5040488;28;20037;-85